sensor_id;sensor_type;location;lat;lon;timestamp;pressure;altitude;pressure_sealevel;temperature;humidity
7376;BME280;3728;42.266;24.944;2023-06-10T00:02:26;99016.38;;;19.33;95.28
7376;BME280;3728;42.266;24.944;2023-06-10T00:04:54;99015.03;;;19.02;97.63
7376;BME280;3728;42.266;24.944;2023-06-10T00:07:24;99015.03;;;19.02;99.02
7376;BME280;3728;42.266;24.944;2023-06-10T00:09:51;99016.03;;;18.87;100.00
7376;BME280;3728;42.266;24.944;2023-06-10T00:12:19;99031.66;;;18.95;100.00
7376;BME280;3728;42.266;24.944;2023-06-10T00:14:46;99026.38;;;18.99;100.00
7376;BME280;3728;42.266;24.944;2023-06-10T00:17:17;99018.66;;;18.83;100.00
7376;BME280;3728;42.266;24.944;2023-06-10T00:19:45;99020.16;;;18.84;100.00
7376;BME280;3728;42.266;24.944;2023-06-10T00:22:14;99017.13;;;18.82;100.00
7376;BME280;3728;42.266;24.944;2023-06-10T00:24:42;99014.81;;;18.77;100.00
7376;BME280;3728;42.266;24.944;2023-06-10T00:27:09;99017.09;;;18.79;100.00
7376;BME280;3728;42.266;24.944;2023-06-10T00:29:37;99030.63;;;18.67;100.00
7376;BME280;3728;42.266;24.944;2023-06-10T00:32:06;99028.63;;;18.57;100.00
7376;BME280;3728;42.266;24.944;2023-06-10T00:34:34;99019.50;;;18.54;100.00
7376;BME280;3728;42.266;24.944;2023-06-10T00:37:02;99020.59;;;18.50;100.00
7376;BME280;3728;42.266;24.944;2023-06-10T00:39:30;99016.84;;;18.54;100.00
7376;BME280;3728;42.266;24.944;2023-06-10T00:41:57;99011.06;;;18.45;100.00
7376;BME280;3728;42.266;24.944;2023-06-10T00:44:26;99008.41;;;18.45;100.00
7376;BME280;3728;42.266;24.944;2023-06-10T00:46:53;99013.81;;;18.52;100.00
7376;BME280;3728;42.266;24.944;2023-06-10T00:49:22;99015.59;;;18.44;100.00
7376;BME280;3728;42.266;24.944;2023-06-10T00:51:51;99018.78;;;18.57;100.00
7376;BME280;3728;42.266;24.944;2023-06-10T00:54:20;99014.25;;;18.58;100.00
7376;BME280;3728;42.266;24.944;2023-06-10T00:56:48;99022.00;;;18.40;100.00
7376;BME280;3728;42.266;24.944;2023-06-10T00:59:16;99019.66;;;18.35;100.00
7376;BME280;3728;42.266;24.944;2023-06-10T01:01:45;99016.03;;;18.47;100.00
7376;BME280;3728;42.266;24.944;2023-06-10T01:04:15;99007.66;;;18.44;100.00
7376;BME280;3728;42.266;24.944;2023-06-10T01:09:43;99009.75;;;18.62;100.00
7376;BME280;3728;42.266;24.944;2023-06-10T01:12:38;99006.47;;;18.38;100.00
7376;BME280;3728;42.266;24.944;2023-06-10T01:15:26;98994.63;;;18.32;100.00
7376;BME280;3728;42.266;24.944;2023-06-10T01:18:01;98991.66;;;18.37;100.00
7376;BME280;3728;42.266;24.944;2023-06-10T01:20:36;98996.28;;;18.44;100.00
7376;BME280;3728;42.266;24.944;2023-06-10T01:23:08;99005.22;;;18.29;100.00
7376;BME280;3728;42.266;24.944;2023-06-10T01:26:00;99004.53;;;18.35;100.00
7376;BME280;3728;42.266;24.944;2023-06-10T01:31:30;99005.75;;;18.41;100.00
7376;BME280;3728;42.266;24.944;2023-06-10T01:34:01;99007.34;;;18.50;100.00
7376;BME280;3728;42.266;24.944;2023-06-10T01:36:33;99012.66;;;18.50;100.00
7376;BME280;3728;42.266;24.944;2023-06-10T01:39:03;99021.44;;;18.57;100.00
7376;BME280;3728;42.266;24.944;2023-06-10T01:41:34;99021.00;;;18.52;100.00
7376;BME280;3728;42.266;24.944;2023-06-10T01:44:03;99028.53;;;18.46;100.00
7376;BME280;3728;42.266;24.944;2023-06-10T01:46:31;99021.75;;;18.49;100.00
7376;BME280;3728;42.266;24.944;2023-06-10T01:48:58;99022.94;;;18.55;100.00
7376;BME280;3728;42.266;24.944;2023-06-10T01:51:26;99017.31;;;18.60;100.00
7376;BME280;3728;42.266;24.944;2023-06-10T01:53:54;99014.38;;;18.72;100.00
7376;BME280;3728;42.266;24.944;2023-06-10T01:56:21;99018.47;;;18.66;100.00
7376;BME280;3728;42.266;24.944;2023-06-10T01:58:49;99025.28;;;18.63;100.00
7376;BME280;3728;42.266;24.944;2023-06-10T02:01:17;99016.53;;;18.59;100.00
7376;BME280;3728;42.266;24.944;2023-06-10T02:03:45;99014.28;;;18.61;100.00
7376;BME280;3728;42.266;24.944;2023-06-10T02:06:12;99020.75;;;18.64;100.00
7376;BME280;3728;42.266;24.944;2023-06-10T02:08:40;99021.47;;;18.61;100.00
7376;BME280;3728;42.266;24.944;2023-06-10T02:11:07;99033.06;;;18.46;100.00
7376;BME280;3728;42.266;24.944;2023-06-10T02:13:35;99024.41;;;18.49;100.00
7376;BME280;3728;42.266;24.944;2023-06-10T02:16:04;99026.78;;;18.61;100.00
7376;BME280;3728;42.266;24.944;2023-06-10T02:18:32;99029.31;;;18.50;100.00
7376;BME280;3728;42.266;24.944;2023-06-10T02:21:00;99022.88;;;18.48;100.00
7376;BME280;3728;42.266;24.944;2023-06-10T02:23:27;99028.84;;;18.44;100.00
7376;BME280;3728;42.266;24.944;2023-06-10T02:25:55;99035.66;;;18.42;100.00
7376;BME280;3728;42.266;24.944;2023-06-10T02:28:24;99044.75;;;18.41;100.00
7376;BME280;3728;42.266;24.944;2023-06-10T02:30:51;99046.53;;;18.30;100.00
7376;BME280;3728;42.266;24.944;2023-06-10T02:33:20;99048.03;;;18.31;100.00
7376;BME280;3728;42.266;24.944;2023-06-10T02:35:49;99045.66;;;18.22;100.00
7376;BME280;3728;42.266;24.944;2023-06-10T02:38:16;99045.22;;;18.17;100.00
7376;BME280;3728;42.266;24.944;2023-06-10T02:40:44;99043.81;;;18.26;100.00
7376;BME280;3728;42.266;24.944;2023-06-10T02:43:12;99050.88;;;18.15;100.00
7376;BME280;3728;42.266;24.944;2023-06-10T02:45:40;99045.28;;;18.20;100.00
7376;BME280;3728;42.266;24.944;2023-06-10T02:48:09;99042.53;;;18.13;100.00
7376;BME280;3728;42.266;24.944;2023-06-10T02:50:37;99045.22;;;18.17;100.00
7376;BME280;3728;42.266;24.944;2023-06-10T02:53:15;99045.44;;;18.05;100.00
7376;BME280;3728;42.266;24.944;2023-06-10T02:55:48;99042.00;;;18.01;100.00
7376;BME280;3728;42.266;24.944;2023-06-10T02:58:17;99049.19;;;18.00;100.00
7376;BME280;3728;42.266;24.944;2023-06-10T03:00:45;99051.81;;;18.00;100.00
7376;BME280;3728;42.266;24.944;2023-06-10T03:03:14;99053.69;;;17.96;100.00
7376;BME280;3728;42.266;24.944;2023-06-10T03:05:59;99050.53;;;17.87;100.00
7376;BME280;3728;42.266;24.944;2023-06-10T03:08:28;99050.63;;;17.94;100.00
7376;BME280;3728;42.266;24.944;2023-06-10T03:10:56;99063.31;;;18.11;100.00
7376;BME280;3728;42.266;24.944;2023-06-10T03:13:24;99053.41;;;18.05;100.00
7376;BME280;3728;42.266;24.944;2023-06-10T03:15:52;99050.56;;;18.20;100.00
7376;BME280;3728;42.266;24.944;2023-06-10T03:18:26;99054.88;;;18.02;100.00
7376;BME280;3728;42.266;24.944;2023-06-10T03:20:54;99064.16;;;18.19;100.00
7376;BME280;3728;42.266;24.944;2023-06-10T03:23:25;99057.47;;;18.28;100.00
7376;BME280;3728;42.266;24.944;2023-06-10T03:25:54;99060.34;;;18.16;100.00
7376;BME280;3728;42.266;24.944;2023-06-10T03:28:23;99055.19;;;18.27;100.00
7376;BME280;3728;42.266;24.944;2023-06-10T03:30:50;99059.69;;;18.23;100.00
7376;BME280;3728;42.266;24.944;2023-06-10T03:33:20;99056.50;;;18.10;100.00
7376;BME280;3728;42.266;24.944;2023-06-10T03:35:49;99063.38;;;18.15;100.00
7376;BME280;3728;42.266;24.944;2023-06-10T03:38:16;99062.97;;;18.13;100.00
7376;BME280;3728;42.266;24.944;2023-06-10T03:40:45;99067.22;;;18.21;100.00
7376;BME280;3728;42.266;24.944;2023-06-10T03:43:12;99063.53;;;18.29;100.00
7376;BME280;3728;42.266;24.944;2023-06-10T03:45:41;99064.94;;;18.19;100.00
7376;BME280;3728;42.266;24.944;2023-06-10T03:48:10;99060.50;;;18.30;100.00
7376;BME280;3728;42.266;24.944;2023-06-10T03:50:44;99054.13;;;18.35;100.00
7376;BME280;3728;42.266;24.944;2023-06-10T03:53:14;99059.16;;;18.43;100.00
7376;BME280;3728;42.266;24.944;2023-06-10T03:55:43;99055.34;;;18.41;100.00
7376;BME280;3728;42.266;24.944;2023-06-10T03:58:11;99057.28;;;18.44;100.00
7376;BME280;3728;42.266;24.944;2023-06-10T04:00:42;99063.69;;;18.43;100.00
7376;BME280;3728;42.266;24.944;2023-06-10T04:03:09;99055.13;;;18.53;100.00
7376;BME280;3728;42.266;24.944;2023-06-10T04:05:51;99063.16;;;18.60;100.00
7376;BME280;3728;42.266;24.944;2023-06-10T04:08:19;99054.84;;;18.62;100.00
7376;BME280;3728;42.266;24.944;2023-06-10T04:10:48;99060.19;;;18.65;100.00
7376;BME280;3728;42.266;24.944;2023-06-10T04:13:16;99064.72;;;18.65;100.00
7376;BME280;3728;42.266;24.944;2023-06-10T04:15:51;99065.66;;;18.83;100.00
7376;BME280;3728;42.266;24.944;2023-06-10T04:18:19;99070.94;;;18.79;100.00
7376;BME280;3728;42.266;24.944;2023-06-10T04:20:49;99069.09;;;18.87;100.00
7376;BME280;3728;42.266;24.944;2023-06-10T04:23:17;99066.44;;;18.87;100.00
7376;BME280;3728;42.266;24.944;2023-06-10T04:25:45;99063.44;;;18.92;100.00
7376;BME280;3728;42.266;24.944;2023-06-10T04:28:13;99062.00;;;18.98;100.00
7376;BME280;3728;42.266;24.944;2023-06-10T04:30:42;99057.09;;;19.00;100.00
7376;BME280;3728;42.266;24.944;2023-06-10T04:33:12;99062.41;;;19.00;100.00
7376;BME280;3728;42.266;24.944;2023-06-10T04:35:40;99063.56;;;19.06;100.00
7376;BME280;3728;42.266;24.944;2023-06-10T04:38:10;99056.06;;;19.15;100.00
7376;BME280;3728;42.266;24.944;2023-06-10T04:40:39;99049.34;;;19.28;100.00
7376;BME280;3728;42.266;24.944;2023-06-10T04:43:07;99052.88;;;19.39;100.00
7376;BME280;3728;42.266;24.944;2023-06-10T04:45:36;99054.06;;;19.49;100.00
7376;BME280;3728;42.266;24.944;2023-06-10T04:48:06;99055.22;;;19.51;100.00
7376;BME280;3728;42.266;24.944;2023-06-10T04:50:34;99054.88;;;19.56;100.00
7376;BME280;3728;42.266;24.944;2023-06-10T04:53:02;99057.81;;;19.41;100.00
7376;BME280;3728;42.266;24.944;2023-06-10T04:55:30;99057.09;;;19.47;100.00
7376;BME280;3728;42.266;24.944;2023-06-10T04:57:58;99051.13;;;19.64;100.00
7376;BME280;3728;42.266;24.944;2023-06-10T05:00:26;99057.28;;;19.75;100.00
7376;BME280;3728;42.266;24.944;2023-06-10T05:02:53;99056.94;;;19.81;100.00
7376;BME280;3728;42.266;24.944;2023-06-10T05:05:22;99053.91;;;19.86;100.00
7376;BME280;3728;42.266;24.944;2023-06-10T05:07:50;99061.59;;;20.01;100.00
7376;BME280;3728;42.266;24.944;2023-06-10T05:10:18;99065.81;;;20.13;100.00
7376;BME280;3728;42.266;24.944;2023-06-10T05:12:45;99065.47;;;20.18;100.00
7376;BME280;3728;42.266;24.944;2023-06-10T05:15:13;99068.19;;;20.28;100.00
7376;BME280;3728;42.266;24.944;2023-06-10T05:17:40;99068.22;;;20.39;100.00
7376;BME280;3728;42.266;24.944;2023-06-10T05:20:09;99067.47;;;20.49;100.00
7376;BME280;3728;42.266;24.944;2023-06-10T05:22:36;99066.34;;;20.50;100.00
7376;BME280;3728;42.266;24.944;2023-06-10T05:25:04;99058.00;;;20.55;100.00
7376;BME280;3728;42.266;24.944;2023-06-10T05:27:33;99062.59;;;20.65;100.00
7376;BME280;3728;42.266;24.944;2023-06-10T05:30:02;99063.34;;;20.73;99.63
7376;BME280;3728;42.266;24.944;2023-06-10T05:32:30;99064.53;;;20.93;96.90
7376;BME280;3728;42.266;24.944;2023-06-10T05:34:58;99061.50;;;20.91;96.18
7376;BME280;3728;42.266;24.944;2023-06-10T05:37:27;99059.19;;;20.96;95.91
7376;BME280;3728;42.266;24.944;2023-06-10T05:40:00;99058.50;;;21.10;95.16
7376;BME280;3728;42.266;24.944;2023-06-10T05:42:27;99056.22;;;21.12;94.92
7376;BME280;3728;42.266;24.944;2023-06-10T05:44:55;99056.56;;;21.28;94.66
7376;BME280;3728;42.266;24.944;2023-06-10T05:47:22;99059.22;;;21.32;95.45
7376;BME280;3728;42.266;24.944;2023-06-10T05:49:50;99060.75;;;21.50;93.79
7376;BME280;3728;42.266;24.944;2023-06-10T05:52:18;99065.28;;;21.64;94.12
7376;BME280;3728;42.266;24.944;2023-06-10T05:54:48;99069.47;;;21.68;92.94
7376;BME280;3728;42.266;24.944;2023-06-10T05:57:16;99070.94;;;21.83;92.17
7376;BME280;3728;42.266;24.944;2023-06-10T05:59:44;99074.00;;;22.00;92.08
7376;BME280;3728;42.266;24.944;2023-06-10T06:02:11;99077.00;;;22.05;89.94
7376;BME280;3728;42.266;24.944;2023-06-10T06:04:39;99075.00;;;22.23;88.13
7376;BME280;3728;42.266;24.944;2023-06-10T06:09:34;99076.50;;;22.35;88.05
7376;BME280;3728;42.266;24.944;2023-06-10T06:12:02;99082.63;;;22.32;88.56
7376;BME280;3728;42.266;24.944;2023-06-10T06:14:31;99084.91;;;22.26;86.12
7376;BME280;3728;42.266;24.944;2023-06-10T06:16:59;99085.25;;;22.39;86.36
7376;BME280;3728;42.266;24.944;2023-06-10T06:19:26;99080.28;;;22.41;86.24
7376;BME280;3728;42.266;24.944;2023-06-10T06:21:54;99076.47;;;22.38;84.72
7376;BME280;3728;42.266;24.944;2023-06-10T06:24:22;99074.50;;;22.49;82.13
7376;BME280;3728;42.266;24.944;2023-06-10T06:26:49;99075.56;;;22.73;81.84
7376;BME280;3728;42.266;24.944;2023-06-10T06:29:18;99085.50;;;22.73;79.30
7376;BME280;3728;42.266;24.944;2023-06-10T06:31:45;99073.72;;;22.60;80.44
7376;BME280;3728;42.266;24.944;2023-06-10T06:34:13;99079.03;;;22.60;81.66
7376;BME280;3728;42.266;24.944;2023-06-10T06:36:42;99078.59;;;22.75;81.80
7376;BME280;3728;42.266;24.944;2023-06-10T06:39:10;99079.97;;;22.97;79.91
7376;BME280;3728;42.266;24.944;2023-06-10T06:41:38;99078.03;;;23.05;79.40
7376;BME280;3728;42.266;24.944;2023-06-10T06:44:06;99077.72;;;22.96;79.38
7376;BME280;3728;42.266;24.944;2023-06-10T06:46:38;99074.22;;;22.99;78.83
7376;BME280;3728;42.266;24.944;2023-06-10T06:49:05;99069.16;;;23.15;79.35
7376;BME280;3728;42.266;24.944;2023-06-10T06:51:33;99064.56;;;23.15;77.23
7376;BME280;3728;42.266;24.944;2023-06-10T06:54:01;99066.66;;;23.45;74.77
7376;BME280;3728;42.266;24.944;2023-06-10T06:56:28;99059.63;;;23.58;74.23
7376;BME280;3728;42.266;24.944;2023-06-10T06:58:56;99062.72;;;23.91;72.92
7376;BME280;3728;42.266;24.944;2023-06-10T07:01:26;99052.94;;;23.77;74.12
7376;BME280;3728;42.266;24.944;2023-06-10T07:03:53;99057.84;;;23.86;74.85
7376;BME280;3728;42.266;24.944;2023-06-10T07:06:21;99055.69;;;24.04;71.55
7376;BME280;3728;42.266;24.944;2023-06-10T07:08:49;99064.63;;;24.27;70.43
7376;BME280;3728;42.266;24.944;2023-06-10T07:11:17;99047.47;;;24.52;71.11
7376;BME280;3728;42.266;24.944;2023-06-10T07:13:45;99049.59;;;24.90;68.62
7376;BME280;3728;42.266;24.944;2023-06-10T07:16:13;99045.81;;;25.34;67.18
7376;BME280;3728;42.266;24.944;2023-06-10T07:18:41;99043.28;;;25.90;60.59
7376;BME280;3728;42.266;24.944;2023-06-10T07:21:08;99051.88;;;25.81;62.57
7376;BME280;3728;42.266;24.944;2023-06-10T07:23:36;99048.72;;;25.86;62.20
7376;BME280;3728;42.266;24.944;2023-06-10T07:26:03;99055.09;;;25.72;61.44
7376;BME280;3728;42.266;24.944;2023-06-10T07:28:31;99039.53;;;25.44;63.48
7376;BME280;3728;42.266;24.944;2023-06-10T07:30:59;99040.03;;;25.36;64.92
7376;BME280;3728;42.266;24.944;2023-06-10T07:33:27;99035.97;;;25.04;65.48
7376;BME280;3728;42.266;24.944;2023-06-10T07:35:55;99040.84;;;24.86;68.44
7376;BME280;3728;42.266;24.944;2023-06-10T07:38:28;99045.56;;;25.02;69.92
7376;BME280;3728;42.266;24.944;2023-06-10T07:40:56;99046.97;;;25.33;67.61
7376;BME280;3728;42.266;24.944;2023-06-10T07:43:24;99044.00;;;25.28;66.76
7376;BME280;3728;42.266;24.944;2023-06-10T07:45:51;99042.75;;;25.32;68.15
7376;BME280;3728;42.266;24.944;2023-06-10T07:48:19;99046.84;;;25.63;63.60
7376;BME280;3728;42.266;24.944;2023-06-10T07:50:47;99048.38;;;25.41;65.61
7376;BME280;3728;42.266;24.944;2023-06-10T07:53:14;99044.41;;;25.26;65.66
7376;BME280;3728;42.266;24.944;2023-06-10T07:55:42;99046.44;;;25.42;66.54
7376;BME280;3728;42.266;24.944;2023-06-10T07:58:09;99039.69;;;25.96;64.68
7376;BME280;3728;42.266;24.944;2023-06-10T08:00:37;99045.53;;;26.30;62.14
7376;BME280;3728;42.266;24.944;2023-06-10T08:03:05;99043.84;;;26.88;57.71
7376;BME280;3728;42.266;24.944;2023-06-10T08:05:34;99047.84;;;26.64;58.04
7376;BME280;3728;42.266;24.944;2023-06-10T08:08:03;99043.69;;;26.79;58.64
7376;BME280;3728;42.266;24.944;2023-06-10T08:10:31;99048.06;;;26.89;56.84
7376;BME280;3728;42.266;24.944;2023-06-10T08:12:59;99050.81;;;26.86;57.99
7376;BME280;3728;42.266;24.944;2023-06-10T08:15:27;99047.44;;;27.14;56.31
7376;BME280;3728;42.266;24.944;2023-06-10T08:17:56;99044.59;;;27.37;58.18
7376;BME280;3728;42.266;24.944;2023-06-10T08:20:24;99044.00;;;27.74;54.60
7376;BME280;3728;42.266;24.944;2023-06-10T08:22:54;99039.56;;;28.22;53.21
7376;BME280;3728;42.266;24.944;2023-06-10T08:25:21;99048.13;;;27.92;53.69
7376;BME280;3728;42.266;24.944;2023-06-10T08:27:49;99040.72;;;27.96;52.01
7376;BME280;3728;42.266;24.944;2023-06-10T08:30:18;99037.16;;;27.70;53.71
7376;BME280;3728;42.266;24.944;2023-06-10T08:32:46;99040.56;;;27.87;55.20
7376;BME280;3728;42.266;24.944;2023-06-10T08:35:15;99031.75;;;28.40;52.78
7376;BME280;3728;42.266;24.944;2023-06-10T08:37:42;99041.53;;;28.46;50.32
7376;BME280;3728;42.266;24.944;2023-06-10T08:40:10;99038.59;;;29.04;50.18
7376;BME280;3728;42.266;24.944;2023-06-10T08:42:54;99041.41;;;29.00;50.22
7376;BME280;3728;42.266;24.944;2023-06-10T08:45:30;99036.88;;;28.97;49.85
7376;BME280;3728;42.266;24.944;2023-06-10T08:47:58;99028.78;;;29.44;49.40
7376;BME280;3728;42.266;24.944;2023-06-10T08:50:29;99039.31;;;29.73;49.41
7376;BME280;3728;42.266;24.944;2023-06-10T08:52:57;99031.34;;;29.48;44.26
7376;BME280;3728;42.266;24.944;2023-06-10T08:55:46;99024.94;;;29.33;46.46
7376;BME280;3728;42.266;24.944;2023-06-10T08:58:19;99022.75;;;29.40;45.75
7376;BME280;3728;42.266;24.944;2023-06-10T09:00:47;99023.78;;;29.55;43.46
7376;BME280;3728;42.266;24.944;2023-06-10T09:03:15;99017.66;;;29.64;42.83
7376;BME280;3728;42.266;24.944;2023-06-10T09:05:43;99012.16;;;29.89;40.78
7376;BME280;3728;42.266;24.944;2023-06-10T09:08:11;99008.72;;;29.89;43.24
7376;BME280;3728;42.266;24.944;2023-06-10T09:10:40;99006.03;;;30.19;44.51
7376;BME280;3728;42.266;24.944;2023-06-10T09:13:08;99004.00;;;30.41;43.04
7376;BME280;3728;42.266;24.944;2023-06-10T09:15:38;99004.41;;;30.31;43.11
7376;BME280;3728;42.266;24.944;2023-06-10T09:18:08;99001.25;;;30.32;46.58
7376;BME280;3728;42.266;24.944;2023-06-10T09:20:36;98998.13;;;30.34;45.02
7376;BME280;3728;42.266;24.944;2023-06-10T09:23:05;99005.38;;;30.15;43.62
7376;BME280;3728;42.266;24.944;2023-06-10T09:25:37;99003.78;;;29.96;47.07
7376;BME280;3728;42.266;24.944;2023-06-10T09:28:13;98999.97;;;30.15;47.34
7376;BME280;3728;42.266;24.944;2023-06-10T09:30:41;98999.72;;;29.92;48.75
7376;BME280;3728;42.266;24.944;2023-06-10T09:33:11;98996.47;;;30.06;46.58
7376;BME280;3728;42.266;24.944;2023-06-10T09:35:46;98996.84;;;29.86;46.65
7376;BME280;3728;42.266;24.944;2023-06-10T09:38:29;99003.00;;;29.65;48.57
7376;BME280;3728;42.266;24.944;2023-06-10T09:40:58;99000.34;;;29.74;45.73
7376;BME280;3728;42.266;24.944;2023-06-10T09:43:41;98998.72;;;29.55;47.62
7376;BME280;3728;42.266;24.944;2023-06-10T09:46:18;98993.25;;;29.46;42.82
7376;BME280;3728;42.266;24.944;2023-06-10T09:49:06;98997.31;;;29.29;45.48
7376;BME280;3728;42.266;24.944;2023-06-10T09:51:33;98994.44;;;29.23;47.74
7376;BME280;3728;42.266;24.944;2023-06-10T09:54:04;98994.56;;;29.20;48.16
7376;BME280;3728;42.266;24.944;2023-06-10T09:56:37;98997.88;;;29.24;48.81
7376;BME280;3728;42.266;24.944;2023-06-10T09:59:09;98995.31;;;29.07;49.31
7376;BME280;3728;42.266;24.944;2023-06-10T10:01:36;99002.97;;;28.62;50.19
7376;BME280;3728;42.266;24.944;2023-06-10T10:04:04;98996.72;;;28.40;51.46
7376;BME280;3728;42.266;24.944;2023-06-10T10:06:33;98999.19;;;28.72;49.94
7376;BME280;3728;42.266;24.944;2023-06-10T10:09:01;99001.13;;;28.46;50.57
7376;BME280;3728;42.266;24.944;2023-06-10T10:11:31;98996.19;;;28.45;51.63
7376;BME280;3728;42.266;24.944;2023-06-10T10:14:03;98996.91;;;28.58;48.64
7376;BME280;3728;42.266;24.944;2023-06-10T10:16:40;98998.75;;;28.48;48.71
7376;BME280;3728;42.266;24.944;2023-06-10T10:19:16;98992.94;;;28.63;49.76
7376;BME280;3728;42.266;24.944;2023-06-10T10:21:54;98992.00;;;29.59;46.55
7376;BME280;3728;42.266;24.944;2023-06-10T10:24:33;98988.72;;;29.77;45.35
7376;BME280;3728;42.266;24.944;2023-06-10T10:27:18;98996.72;;;29.90;43.79
7376;BME280;3728;42.266;24.944;2023-06-10T10:29:54;98989.13;;;30.06;43.45
7376;BME280;3728;42.266;24.944;2023-06-10T10:32:29;98991.19;;;30.24;41.93
7376;BME280;3728;42.266;24.944;2023-06-10T10:35:09;98985.84;;;30.33;41.05
7376;BME280;3728;42.266;24.944;2023-06-10T10:37:43;98983.91;;;30.12;40.45
7376;BME280;3728;42.266;24.944;2023-06-10T10:40:14;98979.19;;;29.94;40.89
7376;BME280;3728;42.266;24.944;2023-06-10T10:42:42;98981.88;;;29.94;42.04
7376;BME280;3728;42.266;24.944;2023-06-10T10:45:10;98977.84;;;29.99;40.12
7376;BME280;3728;42.266;24.944;2023-06-10T10:47:38;98977.81;;;29.68;39.67
7376;BME280;3728;42.266;24.944;2023-06-10T10:50:16;98978.19;;;29.57;41.33
7376;BME280;3728;42.266;24.944;2023-06-10T10:53:01;98978.56;;;29.47;41.82
7376;BME280;3728;42.266;24.944;2023-06-10T10:55:29;98976.00;;;29.43;44.39
7376;BME280;3728;42.266;24.944;2023-06-10T10:58:05;98982.78;;;29.13;46.40
7376;BME280;3728;42.266;24.944;2023-06-10T11:00:35;98974.31;;;29.02;46.21
7376;BME280;3728;42.266;24.944;2023-06-10T11:03:06;98978.16;;;28.67;47.10
7376;BME280;3728;42.266;24.944;2023-06-10T11:05:38;98978.72;;;28.37;47.95
7376;BME280;3728;42.266;24.944;2023-06-10T11:08:09;98973.13;;;28.19;48.47
7376;BME280;3728;42.266;24.944;2023-06-10T11:10:42;98969.56;;;28.09;49.45
7376;BME280;3728;42.266;24.944;2023-06-10T11:13:20;98970.16;;;27.88;48.30
7376;BME280;3728;42.266;24.944;2023-06-10T11:15:49;98970.06;;;27.92;48.68
7376;BME280;3728;42.266;24.944;2023-06-10T11:18:23;98969.56;;;28.22;48.85
7376;BME280;3728;42.266;24.944;2023-06-10T11:23:30;98959.94;;;27.96;49.76
7376;BME280;3728;42.266;24.944;2023-06-10T11:26:19;98954.38;;;28.03;49.42
7376;BME280;3728;42.266;24.944;2023-06-10T11:29:03;98954.78;;;28.01;50.07
7376;BME280;3728;42.266;24.944;2023-06-10T11:34:23;98953.03;;;27.95;48.05
7376;BME280;3728;42.266;24.944;2023-06-10T11:36:53;98954.69;;;28.17;49.26
7376;BME280;3728;42.266;24.944;2023-06-10T11:39:21;98949.09;;;27.99;49.49
7376;BME280;3728;42.266;24.944;2023-06-10T11:41:51;98944.34;;;27.91;49.06
7376;BME280;3728;42.266;24.944;2023-06-10T11:44:18;98941.56;;;28.07;48.02
7376;BME280;3728;42.266;24.944;2023-06-10T11:46:48;98930.34;;;27.96;48.07
7376;BME280;3728;42.266;24.944;2023-06-10T11:49:16;98933.69;;;28.00;47.45
7376;BME280;3728;42.266;24.944;2023-06-10T11:51:44;98928.66;;;28.14;46.45
7376;BME280;3728;42.266;24.944;2023-06-10T11:54:17;98925.38;;;28.32;47.87
7376;BME280;3728;42.266;24.944;2023-06-10T11:56:46;98927.81;;;28.64;45.90
7376;BME280;3728;42.266;24.944;2023-06-10T11:59:14;98926.63;;;28.78;44.87
7376;BME280;3728;42.266;24.944;2023-06-10T12:01:45;98922.41;;;29.11;44.88
7376;BME280;3728;42.266;24.944;2023-06-10T12:04:15;98923.53;;;29.44;45.03
7376;BME280;3728;42.266;24.944;2023-06-10T12:06:52;98922.06;;;29.74;43.62
7376;BME280;3728;42.266;24.944;2023-06-10T12:12:02;98921.22;;;30.17;41.16
7376;BME280;3728;42.266;24.944;2023-06-10T12:14:59;98918.16;;;30.06;43.83
7376;BME280;3728;42.266;24.944;2023-06-10T12:20:03;98913.69;;;30.12;43.34
7376;BME280;3728;42.266;24.944;2023-06-10T12:22:42;98921.00;;;30.51;42.63
7376;BME280;3728;42.266;24.944;2023-06-10T12:25:25;98917.75;;;31.20;41.41
7376;BME280;3728;42.266;24.944;2023-06-10T12:27:56;98923.25;;;31.61;39.66
7376;BME280;3728;42.266;24.944;2023-06-10T12:30:26;98920.94;;;31.78;38.92
7376;BME280;3728;42.266;24.944;2023-06-10T12:32:59;98911.31;;;32.19;41.16
7376;BME280;3728;42.266;24.944;2023-06-10T12:35:28;98912.97;;;32.16;37.88
7376;BME280;3728;42.266;24.944;2023-06-10T12:38:00;98903.22;;;32.10;36.46
7376;BME280;3728;42.266;24.944;2023-06-10T12:40:38;98908.69;;;31.92;36.79
7376;BME280;3728;42.266;24.944;2023-06-10T12:43:07;98910.19;;;32.02;34.24
7376;BME280;3728;42.266;24.944;2023-06-10T12:45:38;98903.53;;;32.12;34.21
7376;BME280;3728;42.266;24.944;2023-06-10T12:48:23;98897.13;;;32.24;36.05
7376;BME280;3728;42.266;24.944;2023-06-10T12:50:58;98893.78;;;32.29;34.10
7376;BME280;3728;42.266;24.944;2023-06-10T12:53:27;98897.47;;;32.40;34.29
7376;BME280;3728;42.266;24.944;2023-06-10T12:55:56;98892.00;;;32.73;33.63
7376;BME280;3728;42.266;24.944;2023-06-10T12:58:24;98881.78;;;32.68;32.76
7376;BME280;3728;42.266;24.944;2023-06-10T13:00:54;98883.84;;;32.73;34.39
7376;BME280;3728;42.266;24.944;2023-06-10T13:03:21;98882.34;;;33.11;34.84
7376;BME280;3728;42.266;24.944;2023-06-10T13:05:49;98882.84;;;33.00;33.08
7376;BME280;3728;42.266;24.944;2023-06-10T13:08:19;98877.44;;;33.00;34.65
7376;BME280;3728;42.266;24.944;2023-06-10T13:10:47;98871.66;;;33.07;32.91
7376;BME280;3728;42.266;24.944;2023-06-10T13:13:15;98882.81;;;33.09;31.32
7376;BME280;3728;42.266;24.944;2023-06-10T13:15:43;98881.13;;;33.12;31.06
7376;BME280;3728;42.266;24.944;2023-06-10T13:18:10;98879.53;;;33.20;31.53
7376;BME280;3728;42.266;24.944;2023-06-10T13:20:38;98874.97;;;33.26;31.83
7376;BME280;3728;42.266;24.944;2023-06-10T13:23:06;98877.38;;;33.24;30.65
7376;BME280;3728;42.266;24.944;2023-06-10T13:25:34;98881.78;;;33.06;32.56
7376;BME280;3728;42.266;24.944;2023-06-10T13:28:02;98869.03;;;33.13;33.99
7376;BME280;3728;42.266;24.944;2023-06-10T13:30:30;98867.53;;;33.26;31.43
7376;BME280;3728;42.266;24.944;2023-06-10T13:32:58;98864.88;;;33.75;29.41
7376;BME280;3728;42.266;24.944;2023-06-10T13:35:26;98867.06;;;33.42;30.97
7376;BME280;3728;42.266;24.944;2023-06-10T13:37:53;98869.97;;;33.24;32.17
7376;BME280;3728;42.266;24.944;2023-06-10T13:40:21;98867.75;;;33.23;31.57
7376;BME280;3728;42.266;24.944;2023-06-10T13:42:49;98877.41;;;33.53;31.83